Time;durP1;ratioP1;P1;durP2;ratioP2;P2;SDS_P1;SDS_P2;PMS_P1;PMS_P2;Temp;Humidity;BMP_temperature;BMP_pressure;BME280_temperature;BME280_humidity;BME280_pressure;Samples;Min_cycle;Max_cycle;Signal;HPM_P1;HPM_P2
2021/10/21 00:00:33;;;;;;;2.47;1.73;;;;;;;;;;5120771;27;20019;-46
2021/10/21 00:03:00;;;;;;;2.33;1.50;;;;;;;;;;5121604;27;20007;-44
2021/10/21 00:05:26;;;;;;;2.40;1.70;;;;;;;;;;5120601;27;20106;-44
2021/10/21 00:07:52;;;;;;;2.60;1.80;;;;;;;;;;5121694;27;20042;-44
2021/10/21 00:10:19;;;;;;;3.75;2.10;;;;;;;;;;5125266;27;20027;-44
2021/10/21 00:12:45;;;;;;;3.13;2.00;;;;;;;;;;5111809;28;20023;-44
2021/10/21 00:15:11;;;;;;;3.28;2.25;;;;;;;;;;5113379;27;20022;-44
2021/10/21 00:17:38;;;;;;;2.58;1.90;;;;;;;;;;5124372;27;20047;-44
2021/10/21 00:20:06;;;;;;;2.30;1.55;;;;;;;;;;5111729;27;20258;-44
2021/10/21 00:22:32;;;;;;;1.90;1.70;;;;;;;;;;5120439;27;20030;-45
2021/10/21 00:24:58;;;;;;;3.00;1.88;;;;;;;;;;5113526;27;20016;-46
2021/10/21 00:27:24;;;;;;;2.05;1.85;;;;;;;;;;5132845;27;20072;-44
2021/10/21 00:29:51;;;;;;;3.33;1.60;;;;;;;;;;5123494;27;20043;-44
2021/10/21 00:32:17;;;;;;;3.55;2.00;;;;;;;;;;5123959;27;20376;-45
2021/10/21 00:34:43;;;;;;;2.78;2.00;;;;;;;;;;5114281;27;20398;-45
2021/10/21 00:37:09;;;;;;;3.03;1.38;;;;;;;;;;5097368;28;20024;-44
2021/10/21 00:39:35;;;;;;;2.33;1.83;;;;;;;;;;5112639;27;20059;-44
2021/10/21 00:42:01;;;;;;;2.72;2.10;;;;;;;;;;5111814;28;20055;-44
2021/10/21 00:44:27;;;;;;;2.47;1.52;;;;;;;;;;5127122;27;20419;-44
2021/10/21 00:46:54;;;;;;;1.95;1.75;;;;;;;;;;5130238;27;20031;-45
2021/10/21 00:49:20;;;;;;;1.73;1.40;;;;;;;;;;5131075;28;20451;-47
2021/10/21 00:51:46;;;;;;;2.83;2.17;;;;;;;;;;5131005;28;20041;-44
2021/10/21 00:54:13;;;;;;;2.92;1.35;;;;;;;;;;5121573;28;20102;-44
2021/10/21 00:56:39;;;;;;;2.90;1.70;;;;;;;;;;5102789;28;20018;-44
2021/10/21 00:59:08;;;;;;;2.80;1.70;;;;;;;;;;5118890;28;20023;-45
2021/10/21 01:01:36;;;;;;;3.13;1.80;;;;;;;;;;5121782;28;20203;-44
2021/10/21 01:04:02;;;;;;;3.03;1.75;;;;;;;;;;5119842;28;20027;-45
2021/10/21 01:06:29;;;;;;;1.90;1.70;;;;;;;;;;5122010;28;20018;-44
2021/10/21 01:08:55;;;;;;;2.33;1.63;;;;;;;;;;5119159;28;20023;-45
2021/10/21 01:11:21;;;;;;;2.40;1.95;;;;;;;;;;5121972;28;20031;-46
2021/10/21 01:13:47;;;;;;;2.15;1.75;;;;;;;;;;5101594;28;20019;-46
2021/10/21 01:16:14;;;;;;;3.38;1.45;;;;;;;;;;5121985;28;20535;-44
2021/10/21 01:18:41;;;;;;;2.97;1.80;;;;;;;;;;5120718;28;20012;-44
2021/10/21 01:21:08;;;;;;;2.30;1.60;;;;;;;;;;5122488;27;20069;-46
2021/10/21 01:23:35;;;;;;;3.20;1.70;;;;;;;;;;5124053;27;20053;-47
2021/10/21 01:26:01;;;;;;;2.97;1.45;;;;;;;;;;5124290;27;20023;-46
2021/10/21 01:28:27;;;;;;;2.03;1.48;;;;;;;;;;5123082;27;20098;-46
2021/10/21 01:30:53;;;;;;;2.05;1.63;;;;;;;;;;5123269;27;20020;-44
2021/10/21 01:33:20;;;;;;;2.20;1.70;;;;;;;;;;5125267;27;20064;-44
2021/10/21 01:35:46;;;;;;;1.90;1.70;;;;;;;;;;5124397;27;20057;-44
2021/10/21 01:38:12;;;;;;;2.97;1.92;;;;;;;;;;5122720;27;20035;-44
2021/10/21 01:40:38;;;;;;;2.95;1.60;;;;;;;;;;5123877;27;20498;-44
2021/10/21 01:43:04;;;;;;;3.92;1.95;;;;;;;;;;5123478;27;20035;-44
2021/10/21 01:45:32;;;;;;;2.30;1.75;;;;;;;;;;5125378;27;20019;-44
2021/10/21 01:47:59;;;;;;;2.50;1.77;;;;;;;;;;5120990;27;20020;-44
2021/10/21 01:50:25;;;;;;;2.00;1.70;;;;;;;;;;5115347;28;20016;-45
2021/10/21 01:52:51;;;;;;;3.05;2.22;;;;;;;;;;5114629;28;20107;-44
2021/10/21 01:55:18;;;;;;;2.15;1.58;;;;;;;;;;5115465;28;20099;-44
2021/10/21 01:57:45;;;;;;;3.63;1.80;;;;;;;;;;5114539;27;20491;-44
2021/10/21 02:00:12;;;;;;;2.50;1.63;;;;;;;;;;5114468;28;20019;-44
2021/10/21 02:02:38;;;;;;;2.50;2.00;;;;;;;;;;5115377;28;20030;-45
2021/10/21 02:05:04;;;;;;;2.53;1.60;;;;;;;;;;5114258;28;20030;-44
2021/10/21 02:07:31;;;;;;;2.03;1.50;;;;;;;;;;5115289;28;20028;-44
2021/10/21 02:09:57;;;;;;;3.45;2.08;;;;;;;;;;5117487;27;20355;-47
2021/10/21 02:12:23;;;;;;;3.15;1.55;;;;;;;;;;5128115;27;20031;-44
2021/10/21 02:14:49;;;;;;;2.00;1.50;;;;;;;;;;5115602;27;20100;-44
2021/10/21 02:17:15;;;;;;;2.47;1.92;;;;;;;;;;5114879;28;20524;-45
2021/10/21 02:19:41;;;;;;;2.00;1.67;;;;;;;;;;5114831;28;20122;-44
2021/10/21 02:22:07;;;;;;;3.53;1.85;;;;;;;;;;5114053;28;20597;-44
2021/10/21 02:24:33;;;;;;;1.55;1.30;;;;;;;;;;5126393;27;20451;-44
2021/10/21 02:26:59;;;;;;;2.35;1.50;;;;;;;;;;5114418;27;20065;-44
2021/10/21 02:29:25;;;;;;;2.28;1.77;;;;;;;;;;5126615;27;20020;-44
2021/10/21 02:31:51;;;;;;;2.05;1.77;;;;;;;;;;5122677;27;20056;-44
2021/10/21 02:34:17;;;;;;;2.40;2.00;;;;;;;;;;5131266;27;20479;-44
2021/10/21 02:36:43;;;;;;;2.00;1.48;;;;;;;;;;5119683;27;20019;-45
2021/10/21 02:39:09;;;;;;;2.78;1.60;;;;;;;;;;5113845;28;20080;-44
2021/10/21 02:41:35;;;;;;;2.42;1.60;;;;;;;;;;5127921;27;20089;-44
2021/10/21 02:44:01;;;;;;;2.50;1.73;;;;;;;;;;5132230;27;20020;-45
2021/10/21 02:46:28;;;;;;;1.73;1.48;;;;;;;;;;5121627;27;20468;-47
2021/10/21 02:48:54;;;;;;;2.05;1.63;;;;;;;;;;5113398;28;20480;-44
2021/10/21 02:51:20;;;;;;;2.25;1.90;;;;;;;;;;5128792;27;20039;-47
2021/10/21 02:53:48;;;;;;;5.22;2.47;;;;;;;;;;5134886;27;20016;-45
2021/10/21 02:56:14;;;;;;;2.13;1.73;;;;;;;;;;5129700;27;20038;-44
2021/10/21 02:58:40;;;;;;;2.15;1.50;;;;;;;;;;5125921;27;20360;-44
2021/10/21 03:01:06;;;;;;;1.60;1.23;;;;;;;;;;5113248;27;20030;-44
2021/10/21 03:03:32;;;;;;;2.65;1.77;;;;;;;;;;5116163;27;20023;-44
2021/10/21 03:05:58;;;;;;;2.15;1.40;;;;;;;;;;5120425;27;20030;-46
2021/10/21 03:08:24;;;;;;;2.92;1.73;;;;;;;;;;5115236;27;20436;-44
2021/10/21 03:10:50;;;;;;;2.95;1.73;;;;;;;;;;5112906;28;20091;-45
2021/10/21 03:13:16;;;;;;;1.90;1.55;;;;;;;;;;5133199;27;20019;-46
2021/10/21 03:15:42;;;;;;;1.95;1.60;;;;;;;;;;5126504;27;20468;-44
2021/10/21 03:18:08;;;;;;;2.47;1.63;;;;;;;;;;5125974;27;20027;-46
2021/10/21 03:20:35;;;;;;;2.25;1.55;;;;;;;;;;5122913;27;20047;-47
2021/10/21 03:23:01;;;;;;;2.95;1.67;;;;;;;;;;5115859;27;20027;-47
2021/10/21 03:25:27;;;;;;;1.67;1.40;;;;;;;;;;5113661;28;20098;-44
2021/10/21 03:27:53;;;;;;;3.08;1.83;;;;;;;;;;5112991;28;20027;-44
2021/10/21 03:30:19;;;;;;;1.83;1.60;;;;;;;;;;5112919;28;20023;-44
2021/10/21 03:32:46;;;;;;;1.30;1.20;;;;;;;;;;5113537;28;20028;-45
2021/10/21 03:35:12;;;;;;;2.75;1.48;;;;;;;;;;5132455;27;20043;-44
2021/10/21 03:37:38;;;;;;;2.20;1.80;;;;;;;;;;5129241;27;20024;-44
2021/10/21 03:40:05;;;;;;;1.88;1.45;;;;;;;;;;5112619;28;20076;-44
2021/10/21 03:42:31;;;;;;;1.80;1.27;;;;;;;;;;5125994;27;20027;-44
2021/10/21 03:44:57;;;;;;;2.33;1.83;;;;;;;;;;5112108;28;20124;-45
2021/10/21 03:47:24;;;;;;;2.00;1.33;;;;;;;;;;5113150;28;20106;-44
2021/10/21 03:49:51;;;;;;;1.40;1.20;;;;;;;;;;5116432;27;20021;-44
2021/10/21 03:52:18;;;;;;;1.80;1.30;;;;;;;;;;5133181;27;20482;-44
2021/10/21 03:54:44;;;;;;;2.70;1.38;;;;;;;;;;5130847;27;20421;-46
2021/10/21 03:57:11;;;;;;;2.00;1.10;;;;;;;;;;5111910;27;20030;-45
2021/10/21 03:59:37;;;;;;;1.80;1.20;;;;;;;;;;5113099;28;20094;-44
2021/10/21 04:02:03;;;;;;;2.55;1.38;;;;;;;;;;5116563;27;20090;-44
2021/10/21 04:04:29;;;;;;;1.40;1.10;;;;;;;;;;5132478;27;20030;-44
2021/10/21 04:06:55;;;;;;;4.53;1.73;;;;;;;;;;5116447;27;20050;-44
2021/10/21 04:09:21;;;;;;;1.63;1.20;;;;;;;;;;5133203;27;20050;-44
2021/10/21 04:11:48;;;;;;;1.73;1.23;;;;;;;;;;5132850;27;20063;-43
2021/10/21 04:14:14;;;;;;;1.95;1.35;;;;;;;;;;5132047;27;20076;-45
2021/10/21 04:16:40;;;;;;;1.25;1.05;;;;;;;;;;5130883;27;20367;-45
2021/10/21 04:19:06;;;;;;;1.23;1.13;;;;;;;;;;5120178;27;20035;-44
2021/10/21 04:21:32;;;;;;;1.60;1.15;;;;;;;;;;5119657;27;20015;-44
2021/10/21 04:23:58;;;;;;;1.50;1.40;;;;;;;;;;5121894;27;20050;-44
2021/10/21 04:26:24;;;;;;;0.90;0.80;;;;;;;;;;5120507;27;20030;-44
2021/10/21 04:28:50;;;;;;;1.10;1.00;;;;;;;;;;5120454;27;20027;-44
2021/10/21 04:31:16;;;;;;;1.60;1.35;;;;;;;;;;5120303;27;20015;-46
2021/10/21 04:33:42;;;;;;;1.10;1.00;;;;;;;;;;5120897;27;20019;-45
2021/10/21 04:36:08;;;;;;;1.25;1.00;;;;;;;;;;5119483;27;20050;-45
2021/10/21 04:38:34;;;;;;;2.55;1.10;;;;;;;;;;5119830;27;20026;-46
2021/10/21 04:41:00;;;;;;;1.20;1.10;;;;;;;;;;5118539;27;20024;-45
2021/10/21 04:43:26;;;;;;;1.60;0.98;;;;;;;;;;5120830;27;20031;-44
2021/10/21 04:45:52;;;;;;;1.90;1.20;;;;;;;;;;5122491;27;20020;-45
2021/10/21 04:48:18;;;;;;;1.20;0.95;;;;;;;;;;5118100;27;20027;-45
2021/10/21 04:50:44;;;;;;;1.70;1.10;;;;;;;;;;5121575;27;20061;-44
2021/10/21 04:53:11;;;;;;;3.83;1.10;;;;;;;;;;5121582;28;20043;-45
2021/10/21 04:55:37;;;;;;;1.27;0.90;;;;;;;;;;5116991;27;20022;-45
2021/10/21 04:58:03;;;;;;;1.50;1.13;;;;;;;;;;5117419;28;20031;-44
2021/10/21 05:00:30;;;;;;;3.83;1.63;;;;;;;;;;5114574;28;20020;-44
2021/10/21 05:02:56;;;;;;;1.33;0.80;;;;;;;;;;5119483;28;20402;-47
2021/10/21 05:05:22;;;;;;;1.83;0.85;;;;;;;;;;5114561;28;20047;-44
2021/10/21 05:07:49;;;;;;;2.58;1.17;;;;;;;;;;5110862;28;20079;-48
2021/10/21 05:10:15;;;;;;;2.10;1.10;;;;;;;;;;5111122;28;20509;-45
2021/10/21 05:12:41;;;;;;;1.65;0.93;;;;;;;;;;5112003;28;20044;-46
2021/10/21 05:15:07;;;;;;;1.00;0.77;;;;;;;;;;5102542;28;20051;-45
2021/10/21 05:17:33;;;;;;;1.25;0.80;;;;;;;;;;5124686;28;20098;-44
2021/10/21 05:20:00;;;;;;;1.95;1.10;;;;;;;;;;5120851;28;20032;-46
2021/10/21 05:22:26;;;;;;;2.30;1.00;;;;;;;;;;5111350;28;20050;-44
2021/10/21 05:24:52;;;;;;;2.53;1.05;;;;;;;;;;5111755;28;20026;-46
2021/10/21 05:27:18;;;;;;;2.15;1.17;;;;;;;;;;5110126;28;20023;-46
2021/10/21 05:29:44;;;;;;;1.77;1.08;;;;;;;;;;5110561;28;20012;-44
2021/10/21 05:32:10;;;;;;;2.60;1.20;;;;;;;;;;5092532;28;20472;-45
2021/10/21 05:34:37;;;;;;;1.70;0.98;;;;;;;;;;5119921;28;20456;-46
2021/10/21 05:37:04;;;;;;;1.65;0.90;;;;;;;;;;5131680;28;20020;-44
2021/10/21 05:39:30;;;;;;;3.25;1.13;;;;;;;;;;5132513;28;20027;-44
2021/10/21 05:41:57;;;;;;;7.40;1.30;;;;;;;;;;5130725;28;20075;-45
2021/10/21 05:44:23;;;;;;;2.97;0.90;;;;;;;;;;5130921;28;20022;-45
2021/10/21 05:46:49;;;;;;;3.03;0.90;;;;;;;;;;5121548;28;20022;-45
2021/10/21 05:49:16;;;;;;;8.32;1.90;;;;;;;;;;5130328;28;20123;-42
2021/10/21 05:51:42;;;;;;;5.63;1.45;;;;;;;;;;5128373;28;20034;-44
2021/10/21 05:54:08;;;;;;;5.20;1.10;;;;;;;;;;5128007;28;20106;-43
2021/10/21 05:56:34;;;;;;;6.93;1.10;;;;;;;;;;5111164;28;20111;-44
2021/10/21 05:59:00;;;;;;;5.45;1.10;;;;;;;;;;5110773;28;20519;-44
2021/10/21 06:01:26;;;;;;;6.35;1.20;;;;;;;;;;5100958;28;20218;-44
2021/10/21 06:03:52;;;;;;;3.95;1.40;;;;;;;;;;5112531;28;20448;-43
2021/10/21 06:06:18;;;;;;;5.00;1.65;;;;;;;;;;5112193;28;20088;-44
2021/10/21 06:08:45;;;;;;;5.55;1.30;;;;;;;;;;5113699;27;20371;-44
2021/10/21 06:11:11;;;;;;;6.82;1.73;;;;;;;;;;5129060;27;20359;-43
2021/10/21 06:13:38;;;;;;;4.75;1.13;;;;;;;;;;5116309;27;20027;-43
2021/10/21 06:16:04;;;;;;;5.32;1.58;;;;;;;;;;5127896;27;20110;-44
2021/10/21 06:18:30;;;;;;;4.10;1.35;;;;;;;;;;5135565;27;20031;-44
2021/10/21 06:20:57;;;;;;;8.70;1.55;;;;;;;;;;5119935;27;20031;-44
2021/10/21 06:23:24;;;;;;;4.03;1.63;;;;;;;;;;5114448;27;20422;-43
2021/10/21 06:25:51;;;;;;;3.70;1.10;;;;;;;;;;5114648;28;20026;-45
2021/10/21 06:28:17;;;;;;;6.40;1.35;;;;;;;;;;5113957;27;20028;-44
2021/10/21 06:30:45;;;;;;;3.95;1.15;;;;;;;;;;5116204;27;20036;-46
2021/10/21 06:33:11;;;;;;;5.40;1.20;;;;;;;;;;5134464;27;20110;-45
2021/10/21 06:35:37;;;;;;;2.30;1.17;;;;;;;;;;5127578;27;20123;-46
2021/10/21 06:38:03;;;;;;;2.70;1.20;;;;;;;;;;5127816;27;20149;-46
2021/10/21 06:40:29;;;;;;;3.47;0.90;;;;;;;;;;5106785;28;20024;-44
2021/10/21 06:42:55;;;;;;;6.78;1.35;;;;;;;;;;5119599;27;20468;-44
2021/10/21 06:45:23;;;;;;;4.90;1.25;;;;;;;;;;5128137;27;20076;-43
2021/10/21 06:47:49;;;;;;;3.97;1.30;;;;;;;;;;5114577;28;20046;-45
2021/10/21 06:50:15;;;;;;;3.67;1.13;;;;;;;;;;5120653;27;20054;-44
2021/10/21 06:52:44;;;;;;;3.50;1.40;;;;;;;;;;5134538;27;20034;-45
2021/10/21 06:55:11;;;;;;;4.70;1.70;;;;;;;;;;5133375;27;20113;-45
2021/10/21 06:57:48;;;;;;;1.52;0.98;;;;;;;;;;5134573;27;20050;-44
2021/10/21 07:00:15;;;;;;;2.30;0.75;;;;;;;;;;5130715;27;20109;-44
2021/10/21 07:02:41;;;;;;;3.05;0.80;;;;;;;;;;5113254;28;20023;-44
2021/10/21 07:05:07;;;;;;;3.72;1.10;;;;;;;;;;5117823;27;20019;-45
2021/10/21 07:07:33;;;;;;;2.08;0.90;;;;;;;;;;5132393;27;20102;-46
2021/10/21 07:10:00;;;;;;;5.05;1.25;;;;;;;;;;5113340;27;20023;-44
2021/10/21 07:12:26;;;;;;;4.70;1.42;;;;;;;;;;5130469;27;20355;-44
2021/10/21 07:14:52;;;;;;;3.05;1.00;;;;;;;;;;5123595;27;20019;-48
2021/10/21 07:17:18;;;;;;;2.13;0.65;;;;;;;;;;5133363;27;20023;-45
2021/10/21 07:19:49;;;;;;;1.48;0.85;;;;;;;;;;5120715;27;20019;-44
2021/10/21 07:22:15;;;;;;;3.03;0.77;;;;;;;;;;5122684;27;20024;-44
2021/10/21 07:24:43;;;;;;;1.35;0.90;;;;;;;;;;5113289;28;20045;-44
2021/10/21 07:27:09;;;;;;;3.40;0.80;;;;;;;;;;5113855;27;20120;-44
2021/10/21 07:29:35;;;;;;;4.00;0.90;;;;;;;;;;5122284;27;20007;-47
2021/10/21 07:32:01;;;;;;;2.78;1.17;;;;;;;;;;5115087;27;20077;-44
2021/10/21 07:34:28;;;;;;;1.75;0.75;;;;;;;;;;5113394;28;20024;-44
2021/10/21 07:36:58;;;;;;;4.68;1.08;;;;;;;;;;5095084;28;20062;-45
2021/10/21 07:39:24;;;;;;;1.65;0.93;;;;;;;;;;5113750;28;20456;-43
2021/10/21 07:41:50;;;;;;;2.88;1.00;;;;;;;;;;5113362;28;20167;-44
2021/10/21 07:44:17;;;;;;;3.65;1.23;;;;;;;;;;5112334;28;20020;-44
2021/10/21 07:46:46;;;;;;;1.92;0.98;;;;;;;;;;5113190;28;20349;-44
2021/10/21 07:49:12;;;;;;;3.50;0.95;;;;;;;;;;5116407;27;20011;-43
2021/10/21 07:51:38;;;;;;;1.40;0.70;;;;;;;;;;5122650;27;20034;-44
2021/10/21 07:54:05;;;;;;;1.02;0.60;;;;;;;;;;5132717;27;20043;-46
2021/10/21 07:56:32;;;;;;;2.72;0.90;;;;;;;;;;5133321;27;20019;-44
2021/10/21 07:58:58;;;;;;;2.40;0.82;;;;;;;;;;5132685;27;20029;-45
2021/10/21 08:01:24;;;;;;;2.95;0.90;;;;;;;;;;5123663;27;20426;-43
2021/10/21 08:03:52;;;;;;;3.95;0.80;;;;;;;;;;5116985;27;20459;-44
2021/10/21 08:06:18;;;;;;;3.13;1.05;;;;;;;;;;5127553;27;20051;-43
2021/10/21 08:08:44;;;;;;;1.73;0.70;;;;;;;;;;5112887;28;20416;-44
2021/10/21 08:11:10;;;;;;;1.08;0.50;;;;;;;;;;5112081;27;20047;-43
2021/10/21 08:13:36;;;;;;;1.30;0.60;;;;;;;;;;5113901;27;20445;-44
2021/10/21 08:16:02;;;;;;;1.45;0.88;;;;;;;;;;5112586;27;20458;-45
2021/10/21 08:18:28;;;;;;;2.40;1.02;;;;;;;;;;5112561;28;20367;-43
2021/10/21 08:20:54;;;;;;;2.10;0.60;;;;;;;;;;5112568;28;20034;-45
2021/10/21 08:23:20;;;;;;;1.67;0.95;;;;;;;;;;5111523;28;20593;-43
2021/10/21 08:25:47;;;;;;;1.30;0.60;;;;;;;;;;5130660;27;20132;-45
2021/10/21 08:28:13;;;;;;;2.30;1.10;;;;;;;;;;5131757;27;20027;-44
2021/10/21 08:30:42;;;;;;;3.58;0.70;;;;;;;;;;5126285;27;20030;-45
2021/10/21 08:33:08;;;;;;;2.08;0.57;;;;;;;;;;5111622;28;20059;-44
2021/10/21 08:35:34;;;;;;;3.78;0.77;;;;;;;;;;5128092;27;20119;-44
2021/10/21 08:38:01;;;;;;;1.27;0.52;;;;;;;;;;5115231;27;20031;-44
2021/10/21 08:40:28;;;;;;;2.90;0.70;;;;;;;;;;5116921;27;20007;-45
2021/10/21 08:42:54;;;;;;;2.75;0.70;;;;;;;;;;5132418;27;20031;-44
2021/10/21 08:45:20;;;;;;;1.52;0.70;;;;;;;;;;5130524;27;20841;-44
2021/10/21 08:47:48;;;;;;;1.00;0.80;;;;;;;;;;5122436;27;20015;-45
2021/10/21 08:50:15;;;;;;;1.50;0.55;;;;;;;;;;5124559;27;20016;-45
2021/10/21 08:52:42;;;;;;;2.60;0.70;;;;;;;;;;5111906;28;20088;-44
2021/10/21 08:55:08;;;;;;;1.35;0.60;;;;;;;;;;5111317;28;20028;-44
2021/10/21 08:57:35;;;;;;;1.02;0.50;;;;;;;;;;5093881;28;20015;-44
2021/10/21 09:00:01;;;;;;;3.55;0.80;;;;;;;;;;5111616;28;20011;-43
2021/10/21 09:02:37;;;;;;;1.00;0.55;;;;;;;;;;5112105;28;20372;-44
2021/10/21 09:05:12;;;;;;;0.57;0.50;;;;;;;;;;5110473;28;20019;-44
2021/10/21 09:07:58;;;;;;;1.08;0.40;;;;;;;;;;5112001;28;20072;-45
2021/10/21 09:10:25;;;;;;;3.10;0.60;;;;;;;;;;5111648;28;20023;-43
2021/10/21 09:12:51;;;;;;;3.50;0.80;;;;;;;;;;5114376;28;20051;-46
2021/10/21 09:15:24;;;;;;;1.55;0.60;;;;;;;;;;5120970;28;20810;-45
2021/10/21 09:17:51;;;;;;;1.00;0.50;;;;;;;;;;5111813;28;20044;-44
2021/10/21 09:20:24;;;;;;;1.52;0.50;;;;;;;;;;5121033;28;20032;-45
2021/10/21 09:23:01;;;;;;;2.25;0.80;;;;;;;;;;5112165;28;20019;-45
2021/10/21 09:25:29;;;;;;;3.20;1.00;;;;;;;;;;5112355;28;20070;-45
2021/10/21 09:27:58;;;;;;;1.02;0.60;;;;;;;;;;5112200;28;20012;-47
2021/10/21 09:30:25;;;;;;;1.67;1.10;;;;;;;;;;5111850;28;20028;-43
2021/10/21 09:32:51;;;;;;;3.13;0.95;;;;;;;;;;5111962;28;20051;-45
2021/10/21 09:35:19;;;;;;;1.05;0.50;;;;;;;;;;5110810;28;20040;-43
2021/10/21 09:37:46;;;;;;;0.88;0.55;;;;;;;;;;5112337;28;20028;-45
2021/10/21 09:40:12;;;;;;;1.25;0.57;;;;;;;;;;5111311;28;20015;-44
2021/10/21 09:42:42;;;;;;;0.70;0.50;;;;;;;;;;5114997;28;20460;-47
2021/10/21 09:45:41;;;;;;;1.52;0.95;;;;;;;;;;5119473;27;20099;-45
2021/10/21 09:48:08;;;;;;;2.15;0.60;;;;;;;;;;5070267;27;20035;-44
2021/10/21 09:50:39;;;;;;;1.75;0.40;;;;;;;;;;5115818;28;20031;-43
2021/10/21 09:53:22;;;;;;;3.35;0.80;;;;;;;;;;5114973;28;20114;-43
2021/10/21 09:56:01;;;;;;;1.70;0.57;;;;;;;;;;5115491;27;20031;-43
2021/10/21 09:58:28;;;;;;;0.82;0.30;;;;;;;;;;5123078;27;20072;-43
2021/10/21 10:01:05;;;;;;;0.82;0.40;;;;;;;;;;5115505;28;20364;-44
2021/10/21 10:03:32;;;;;;;1.58;0.65;;;;;;;;;;5115556;28;20018;-43
2021/10/21 10:05:58;;;;;;;1.42;0.60;;;;;;;;;;5115915;27;20432;-43
2021/10/21 10:08:25;;;;;;;0.77;0.40;;;;;;;;;;5123451;27;20084;-44
2021/10/21 10:10:52;;;;;;;0.60;0.57;;;;;;;;;;5135529;27;20031;-44
2021/10/21 10:13:18;;;;;;;0.93;0.40;;;;;;;;;;5132992;27;20031;-43
2021/10/21 10:15:45;;;;;;;1.98;0.43;;;;;;;;;;5125875;27;20368;-45
2021/10/21 10:18:28;;;;;;;0.77;0.60;;;;;;;;;;5114402;28;20015;-45
2021/10/21 10:21:14;;;;;;;1.13;0.45;;;;;;;;;;5115752;27;20090;-43
2021/10/21 10:23:51;;;;;;;0.93;0.43;;;;;;;;;;5097840;28;20044;-45
2021/10/21 10:26:58;;;;;;;1.25;0.70;;;;;;;;;;5117961;27;20027;-44
2021/10/21 10:29:36;;;;;;;0.60;0.60;;;;;;;;;;5031951;28;20040;-43
2021/10/21 10:32:06;;;;;;;1.52;0.75;;;;;;;;;;5114447;27;20483;-44
2021/10/21 10:34:32;;;;;;;0.88;0.50;;;;;;;;;;5133439;27;20031;-44
2021/10/21 10:37:14;;;;;;;1.25;0.55;;;;;;;;;;5118282;27;20365;-43
2021/10/21 10:39:45;;;;;;;2.55;0.70;;;;;;;;;;5114645;27;20043;-44
2021/10/21 10:42:11;;;;;;;0.93;0.23;;;;;;;;;;5120570;27;20031;-45
2021/10/21 10:44:37;;;;;;;1.98;0.40;;;;;;;;;;5133116;27;20257;-46
2021/10/21 10:47:04;;;;;;;1.55;0.32;;;;;;;;;;5118177;27;20031;-45
2021/10/21 10:49:39;;;;;;;1.00;0.60;;;;;;;;;;5114459;27;20464;-44
2021/10/21 10:52:15;;;;;;;1.00;0.50;;;;;;;;;;5113865;28;20027;-44
2021/10/21 10:54:47;;;;;;;0.50;0.45;;;;;;;;;;5130341;27;20016;-45
2021/10/21 10:57:33;;;;;;;1.13;0.30;;;;;;;;;;5134102;27;20068;-47
2021/10/21 10:59:59;;;;;;;0.40;0.30;;;;;;;;;;5117275;27;20031;-45
2021/10/21 11:02:25;;;;;;;1.48;0.47;;;;;;;;;;5115873;27;20032;-45
2021/10/21 11:04:52;;;;;;;1.80;0.40;;;;;;;;;;5118429;27;20015;-45
2021/10/21 11:07:22;;;;;;;0.82;0.47;;;;;;;;;;5133992;27;20054;-45
2021/10/21 11:09:48;;;;;;;0.90;0.32;;;;;;;;;;5134595;27;20019;-44
2021/10/21 11:12:20;;;;;;;0.65;0.45;;;;;;;;;;5125399;27;20056;-44
2021/10/21 11:14:53;;;;;;;1.00;0.52;;;;;;;;;;5122985;27;20027;-44
2021/10/21 11:17:38;;;;;;;1.55;0.50;;;;;;;;;;5125027;27;20977;-44
2021/10/21 11:20:04;;;;;;;0.43;0.30;;;;;;;;;;5113400;28;20056;-44
2021/10/21 11:22:35;;;;;;;1.63;0.60;;;;;;;;;;5113547;28;20047;-43
2021/10/21 11:25:03;;;;;;;1.27;0.75;;;;;;;;;;5113834;28;20024;-43
2021/10/21 11:27:42;;;;;;;2.17;0.40;;;;;;;;;;5113596;28;20026;-43
2021/10/21 11:30:09;;;;;;;1.60;0.50;;;;;;;;;;5121991;27;20384;-44
2021/10/21 11:32:36;;;;;;;1.98;0.70;;;;;;;;;;5115059;27;20168;-43
2021/10/21 11:35:10;;;;;;;2.20;0.88;;;;;;;;;;5113355;28;20044;-46
2021/10/21 11:37:38;;;;;;;0.70;0.40;;;;;;;;;;5113642;28;20020;-47
2021/10/21 11:40:05;;;;;;;2.97;0.63;;;;;;;;;;5113383;28;20028;-44
2021/10/21 11:42:31;;;;;;;1.20;0.47;;;;;;;;;;5113265;28;20011;-44
2021/10/21 11:45:05;;;;;;;2.92;0.52;;;;;;;;;;5114904;27;20023;-44
2021/10/21 11:47:33;;;;;;;1.48;0.52;;;;;;;;;;5119630;27;20016;-44
2021/10/21 11:49:59;;;;;;;2.13;0.40;;;;;;;;;;5098692;27;20479;-44
2021/10/21 11:52:35;;;;;;;0.85;0.40;;;;;;;;;;5114309;27;20042;-44
2021/10/21 11:55:01;;;;;;;2.08;0.52;;;;;;;;;;5112988;28;20027;-44
2021/10/21 11:57:32;;;;;;;1.52;0.80;;;;;;;;;;5111687;27;20032;-44
2021/10/21 11:59:58;;;;;;;1.30;0.40;;;;;;;;;;5113146;28;20356;-47
2021/10/21 12:02:28;;;;;;;1.17;0.40;;;;;;;;;;5126417;27;20031;-44
2021/10/21 12:04:54;;;;;;;1.27;0.38;;;;;;;;;;5119162;27;20027;-44
2021/10/21 12:07:21;;;;;;;0.80;0.57;;;;;;;;;;5112355;27;20126;-45
2021/10/21 12:09:47;;;;;;;0.80;0.40;;;;;;;;;;5112949;28;20069;-44
2021/10/21 12:12:17;;;;;;;0.45;0.30;;;;;;;;;;5112472;27;20027;-43
2021/10/21 12:14:44;;;;;;;2.25;0.40;;;;;;;;;;5115609;27;20033;-48
2021/10/21 12:17:11;;;;;;;0.77;0.43;;;;;;;;;;5132475;27;20019;-44
2021/10/21 12:19:39;;;;;;;1.77;0.52;;;;;;;;;;5120659;27;20459;-44
2021/10/21 12:22:17;;;;;;;0.63;0.30;;;;;;;;;;5133090;27;20031;-44
2021/10/21 12:24:45;;;;;;;0.63;0.50;;;;;;;;;;5116156;27;20047;-44
2021/10/21 12:27:17;;;;;;;1.33;0.63;;;;;;;;;;5132087;27;20027;-45
2021/10/21 12:29:43;;;;;;;;;;;;;;;;;;5121749;27;20472;-45
2021/10/21 12:32:13;;;;;;;1.10;0.40;;;;;;;;;;5111902;28;19917;-44
2021/10/21 12:34:41;;;;;;;1.38;0.50;;;;;;;;;;5113633;27;20523;-47
2021/10/21 12:37:17;;;;;;;0.65;0.50;;;;;;;;;;5118330;27;20023;-44
2021/10/21 12:39:44;;;;;;;1.45;0.40;;;;;;;;;;5132755;27;20127;-45
2021/10/21 12:42:11;;;;;;;0.80;0.40;;;;;;;;;;5131914;27;20046;-45
2021/10/21 12:44:42;;;;;;;1.58;0.68;;;;;;;;;;5129849;27;20030;-44
2021/10/21 12:47:08;;;;;;;1.48;0.47;;;;;;;;;;5110074;28;20031;-44
2021/10/21 12:49:34;;;;;;;1.40;0.32;;;;;;;;;;5112499;27;20072;-46
2021/10/21 12:52:11;;;;;;;0.57;0.57;;;;;;;;;;5123774;27;20121;-46
2021/10/21 12:54:38;;;;;;;2.55;0.55;;;;;;;;;;5112320;28;20360;-47
2021/10/21 12:57:04;;;;;;;0.80;0.30;;;;;;;;;;5116695;28;20035;-47
2021/10/21 12:59:31;;;;;;;1.67;0.80;;;;;;;;;;5131126;28;20027;-44
2021/10/21 13:02:14;;;;;;;1.70;0.50;;;;;;;;;;5112490;28;20473;-48
2021/10/21 13:04:40;;;;;;;1.30;0.38;;;;;;;;;;5117267;28;20079;-44
2021/10/21 13:07:07;;;;;;;2.28;0.55;;;;;;;;;;5129960;28;20482;-44
2021/10/21 13:09:34;;;;;;;0.30;0.28;;;;;;;;;;5111595;28;20042;-44
2021/10/21 13:12:00;;;;;;;1.52;0.50;;;;;;;;;;5112353;28;20073;-43
2021/10/21 13:14:31;;;;;;;1.08;0.50;;;;;;;;;;5113482;28;20027;-44
2021/10/21 13:16:57;;;;;;;0.77;0.30;;;;;;;;;;5125775;27;20061;-44
2021/10/21 13:19:23;;;;;;;1.10;0.47;;;;;;;;;;5115335;28;20042;-44
2021/10/21 13:21:49;;;;;;;0.57;0.45;;;;;;;;;;5131434;27;20019;-44
2021/10/21 13:24:15;;;;;;;0.95;0.43;;;;;;;;;;5136234;27;20089;-45
2021/10/21 13:26:41;;;;;;;1.00;0.38;;;;;;;;;;5137283;27;20054;-43
2021/10/21 13:29:07;;;;;;;1.00;0.40;;;;;;;;;;5136647;27;20087;-43
2021/10/21 13:31:33;;;;;;;1.52;0.40;;;;;;;;;;5135897;27;20027;-45
2021/10/21 13:34:00;;;;;;;0.82;0.40;;;;;;;;;;5136396;27;20486;-43
2021/10/21 13:36:26;;;;;;;0.95;0.50;;;;;;;;;;5135932;27;20043;-45
2021/10/21 13:38:52;;;;;;;0.68;0.38;;;;;;;;;;5136662;27;20023;-43
2021/10/21 13:41:19;;;;;;;1.63;0.40;;;;;;;;;;5135865;27;20023;-44
2021/10/21 13:43:45;;;;;;;0.45;0.30;;;;;;;;;;5123876;27;20052;-44
2021/10/21 13:46:10;;;;;;;0.73;0.30;;;;;;;;;;5126514;27;20054;-45
2021/10/21 13:48:37;;;;;;;1.85;0.52;;;;;;;;;;5115362;27;20012;-44
2021/10/21 13:51:03;;;;;;;0.88;0.57;;;;;;;;;;5132464;27;20019;-45
2021/10/21 13:53:29;;;;;;;0.85;0.50;;;;;;;;;;5133382;27;20046;-44
2021/10/21 13:55:55;;;;;;;0.55;0.40;;;;;;;;;;5097460;28;20396;-44
2021/10/21 13:58:21;;;;;;;0.93;0.45;;;;;;;;;;5114630;28;20145;-45
2021/10/21 14:00:47;;;;;;;0.73;0.30;;;;;;;;;;5122131;27;20090;-48
2021/10/21 14:03:13;;;;;;;0.85;0.40;;;;;;;;;;5134317;27;20020;-44
2021/10/21 14:05:39;;;;;;;0.55;0.35;;;;;;;;;;5133459;27;20025;-46
2021/10/21 14:08:06;;;;;;;1.25;0.88;;;;;;;;;;5126011;27;20112;-44
2021/10/21 14:10:33;;;;;;;0.68;0.40;;;;;;;;;;5128908;27;20023;-45
2021/10/21 14:12:59;;;;;;;1.70;0.40;;;;;;;;;;5135631;27;20475;-44
2021/10/21 14:15:26;;;;;;;0.98;0.47;;;;;;;;;;5129712;27;20015;-44
2021/10/21 14:17:52;;;;;;;2.53;0.50;;;;;;;;;;5116373;27;20077;-44
2021/10/21 14:20:18;;;;;;;0.98;0.40;;;;;;;;;;5122166;27;20363;-44
2021/10/21 14:22:44;;;;;;;0.70;0.35;;;;;;;;;;5128556;27;20094;-44
2021/10/21 14:25:10;;;;;;;0.88;0.60;;;;;;;;;;5114710;27;20099;-43
2021/10/21 14:27:37;;;;;;;0.88;0.32;;;;;;;;;;5113182;28;20480;-44
2021/10/21 14:30:05;;;;;;;1.42;0.70;;;;;;;;;;5114855;28;20039;-44
2021/10/21 14:32:31;;;;;;;0.85;0.50;;;;;;;;;;5123667;27;20472;-47
2021/10/21 14:34:57;;;;;;;0.68;0.40;;;;;;;;;;5133467;27;20063;-44
2021/10/21 14:37:26;;;;;;;0.55;0.22;;;;;;;;;;5116401;27;20031;-43
2021/10/21 14:39:52;;;;;;;0.88;0.40;;;;;;;;;;5135355;27;20046;-44
2021/10/21 14:42:18;;;;;;;1.00;0.50;;;;;;;;;;5134625;27;20077;-45
2021/10/21 14:44:45;;;;;;;2.00;0.40;;;;;;;;;;5133526;27;20023;-45